LPB weather

El Alto International Airport
La Paz / El Alto, La Paz Department, Bolivia

Public forecast

Using degrees Celsius for public forecast. Weather courtesy of forecast.io.

METAR (pilot weather report)

Retrieved 2019/05/19 08:00 UTC (26 minutes ago):

SLLP 190800Z 19080Z 02003KT 9999 NSC M00/M06 Q1036

TAF (pilot weather forecast)

Retrieved 2019/05/19 06:48 UTC (2 hours ago):

TAF SLLP 190400Z 1906/2006 07004KT 9999 FEW015 TX16/1920Z TNM04/1910Z BECMG 1914/1917 23009KT FEW017 BECMG 1923/2001 03005KT